createdAt,value
2019-05-18T00:00:42.601Z,14.29
2019-05-18T00:01:42.564Z,14.27
2019-05-18T00:02:42.555Z,14.21
2019-05-18T00:03:42.561Z,14.25
2019-05-18T00:04:42.533Z,14.22
2019-05-18T00:05:42.558Z,14.18
2019-05-18T00:06:42.513Z,14.27
2019-05-18T00:07:42.502Z,14.25
2019-05-18T00:08:42.487Z,14.28
2019-05-18T00:09:42.475Z,14.17
2019-05-18T00:10:42.483Z,14.27
2019-05-18T00:11:42.467Z,14.20
2019-05-18T00:12:42.440Z,14.17
2019-05-18T00:13:42.435Z,14.21
2019-05-18T00:14:42.439Z,14.10
2019-05-18T00:15:42.425Z,14.09
2019-05-18T00:16:42.390Z,14.15
2019-05-18T00:17:42.399Z,14.10
2019-05-18T00:18:42.379Z,14.14
2019-05-18T00:19:42.368Z,14.14
2019-05-18T00:20:42.406Z,14.09
2019-05-18T00:21:42.378Z,14.14
2019-05-18T00:22:42.329Z,14.04
2019-05-18T00:23:42.345Z,13.97
2019-05-18T00:24:42.351Z,13.99
2019-05-18T00:25:42.339Z,14.02
2019-05-18T00:26:42.277Z,14.03
2019-05-18T00:27:42.266Z,13.92
2019-05-18T00:28:42.267Z,13.95
2019-05-18T00:29:42.258Z,13.99
2019-05-18T00:30:42.238Z,13.91
2019-05-18T00:31:42.248Z,13.91
2019-05-18T00:32:42.223Z,13.92
2019-05-18T00:33:42.199Z,13.96
2019-05-18T00:34:42.216Z,13.97
2019-05-18T00:35:42.190Z,13.92
2019-05-18T00:36:42.200Z,13.97
2019-05-18T00:37:42.156Z,13.92
2019-05-18T00:38:42.143Z,13.97
2019-05-18T00:39:42.153Z,13.81
2019-05-18T00:40:42.820Z,13.91
2019-05-18T00:41:45.369Z,13.84
2019-05-18T00:42:42.110Z,13.85
2019-05-18T00:43:42.115Z,13.82
2019-05-18T00:44:42.135Z,13.81
2019-05-18T00:45:42.085Z,13.77
2019-05-18T00:46:42.089Z,13.75
2019-05-18T00:47:42.440Z,13.67
2019-05-18T00:48:42.039Z,13.73
2019-05-18T00:49:42.024Z,13.75
2019-05-18T00:50:42.013Z,13.77
2019-05-18T00:51:42.062Z,13.64
2019-05-18T00:52:42.010Z,13.67
2019-05-18T00:53:41.999Z,13.59
2019-05-18T00:54:41.984Z,13.62
2019-05-18T00:55:41.960Z,13.71
2019-05-18T00:56:41.988Z,13.66
2019-05-18T00:57:41.948Z,13.62
2019-05-18T00:58:41.976Z,13.60
2019-05-18T00:59:41.930Z,13.63
2019-05-18T01:00:41.898Z,13.57
2019-05-18T01:01:41.921Z,13.60
2019-05-18T01:02:41.890Z,13.57
2019-05-18T01:03:41.888Z,13.55
2019-05-18T01:04:41.879Z,13.57
2019-05-18T01:05:41.856Z,13.49
2019-05-18T01:06:41.872Z,13.59
2019-05-18T01:07:41.840Z,13.59
2019-05-18T01:08:41.834Z,13.60
2019-05-18T01:09:41.804Z,13.52
2019-05-18T01:10:41.808Z,13.55
2019-05-18T01:11:41.813Z,13.60
2019-05-18T01:12:41.768Z,13.51
2019-05-18T01:13:41.761Z,13.57
2019-05-18T01:14:41.812Z,13.52
2019-05-18T01:15:41.747Z,13.55
2019-05-18T01:16:41.754Z,13.54
2019-05-18T01:17:55.138Z,13.49
2019-05-18T01:18:42.707Z,13.51
2019-05-18T01:19:41.696Z,13.52
2019-05-18T01:20:41.726Z,13.44
2019-05-18T01:21:41.701Z,13.51
2019-05-18T01:22:41.677Z,13.45
2019-05-18T01:23:41.647Z,13.49
2019-05-18T01:24:41.641Z,13.45
2019-05-18T01:25:41.642Z,13.51
2019-05-18T01:26:41.641Z,13.45
2019-05-18T01:27:41.620Z,13.38
2019-05-18T01:28:41.598Z,13.41
2019-05-18T01:29:41.605Z,13.30
2019-05-18T01:30:41.580Z,13.30
2019-05-18T01:31:41.595Z,13.28
2019-05-18T01:32:41.576Z,13.32
2019-05-18T01:33:41.549Z,13.28
2019-05-18T01:34:41.543Z,13.32
2019-05-18T01:35:41.531Z,13.17
2019-05-18T01:36:41.508Z,13.17
2019-05-18T01:37:41.513Z,13.26
2019-05-18T01:38:41.492Z,13.20
2019-05-18T01:39:41.477Z,13.30
2019-05-18T01:40:41.463Z,13.28
2019-05-18T01:41:41.455Z,13.32
2019-05-18T01:42:41.525Z,13.23
2019-05-18T01:43:41.431Z,13.28
2019-05-18T01:44:41.421Z,13.32
2019-05-18T01:45:41.414Z,13.19
2019-05-18T01:46:41.403Z,13.28
2019-05-18T01:47:41.429Z,13.30
2019-05-18T01:48:41.381Z,13.14
2019-05-18T01:49:41.386Z,13.20
2019-05-18T01:50:41.361Z,13.28
2019-05-18T01:51:41.343Z,13.20
2019-05-18T01:52:41.369Z,13.25
2019-05-18T01:53:41.324Z,13.26
2019-05-18T01:54:41.325Z,13.25
2019-05-18T01:55:41.300Z,13.23
2019-05-18T01:56:41.293Z,13.19
2019-05-18T01:57:41.296Z,13.14
2019-05-18T01:58:41.276Z,13.22
2019-05-18T01:59:41.258Z,13.15
2019-05-18T02:00:41.249Z,13.23
2019-05-18T02:01:41.231Z,13.19
2019-05-18T02:02:41.245Z,13.15
2019-05-18T02:03:41.207Z,13.19
2019-05-18T02:04:41.210Z,13.19
2019-05-18T02:05:41.185Z,13.12
2019-05-18T02:06:41.180Z,13.10
2019-05-18T02:07:41.196Z,13.26
2019-05-18T02:08:41.161Z,13.11
2019-05-18T02:09:41.139Z,13.28
2019-05-18T02:10:41.134Z,13.22
2019-05-18T02:11:41.119Z,13.14
2019-05-18T02:12:41.130Z,13.20
2019-05-18T02:13:41.100Z,13.14
2019-05-18T02:14:41.080Z,13.11
2019-05-18T02:15:41.080Z,13.07
2019-05-18T02:16:41.062Z,13.10
2019-05-18T02:17:41.063Z,13.10
2019-05-18T02:18:41.058Z,13.12
2019-05-18T02:19:41.036Z,13.19
2019-05-18T02:20:41.018Z,13.19
2019-05-18T02:21:41.009Z,13.10
2019-05-18T02:22:41.016Z,13.19
2019-05-18T02:23:40.994Z,13.12
2019-05-18T02:24:40.974Z,13.19
2019-05-18T02:25:40.983Z,13.17
2019-05-18T02:26:40.947Z,13.10
2019-05-18T02:27:41.370Z,13.19
2019-05-18T02:28:40.925Z,13.07
2019-05-18T02:29:40.917Z,13.03
2019-05-18T02:30:40.906Z,13.12
2019-05-18T02:31:40.895Z,12.92
2019-05-18T02:32:40.925Z,13.05
2019-05-18T02:33:40.884Z,13.03
2019-05-18T02:34:40.865Z,13.03
2019-05-18T02:35:40.853Z,13.05
2019-05-18T02:36:40.843Z,13.03
2019-05-18T02:37:40.857Z,13.05
2019-05-18T02:38:40.819Z,13.04
2019-05-18T02:39:40.841Z,13.04
2019-05-18T02:40:40.804Z,13.07
2019-05-18T02:41:40.779Z,13.05
2019-05-18T02:42:40.780Z,13.01
2019-05-18T02:43:40.797Z,13.07
2019-05-18T02:44:40.760Z,13.03
2019-05-18T02:45:40.749Z,12.96
2019-05-18T02:46:40.727Z,12.92
2019-05-18T02:47:40.720Z,12.90
2019-05-18T02:48:49.279Z,12.89
2019-05-18T02:49:41.726Z,12.95
2019-05-18T02:50:40.681Z,12.93
2019-05-18T02:51:40.671Z,12.83
2019-05-18T02:52:40.665Z,12.93
2019-05-18T02:53:40.670Z,12.90
2019-05-18T02:54:40.658Z,12.87
2019-05-18T02:55:40.635Z,12.77
2019-05-18T02:56:40.618Z,12.92
2019-05-18T02:57:40.615Z,12.82
2019-05-18T02:58:40.649Z,12.85
2019-05-18T02:59:40.630Z,12.96
2019-05-18T03:00:40.596Z,12.92
2019-05-18T03:01:40.586Z,12.82
2019-05-18T03:02:40.552Z,12.77
2019-05-18T03:03:40.561Z,12.78
2019-05-18T03:04:40.538Z,12.78
2019-05-18T03:05:40.510Z,12.86
2019-05-18T03:06:40.507Z,12.82
2019-05-18T03:07:40.512Z,12.85
2019-05-18T03:08:40.495Z,12.79
2019-05-18T03:09:40.489Z,12.78
2019-05-18T03:10:40.470Z,12.83
2019-05-18T03:11:40.450Z,12.78
2019-05-18T03:12:40.489Z,12.78
2019-05-18T03:13:40.457Z,12.85
2019-05-18T03:14:40.426Z,12.75
2019-05-18T03:15:40.413Z,12.79
2019-05-18T03:16:40.404Z,12.79
2019-05-18T03:17:40.379Z,12.82
2019-05-18T03:18:40.393Z,12.83
2019-05-18T03:19:40.369Z,12.85
2019-05-18T03:20:40.351Z,12.90
2019-05-18T03:21:40.331Z,12.85
2019-05-18T03:22:40.328Z,12.71
2019-05-18T03:23:40.346Z,12.75
2019-05-18T03:24:40.295Z,12.71
2019-05-18T03:25:40.286Z,12.82
2019-05-18T03:26:40.278Z,12.74
2019-05-18T03:27:40.317Z,12.68
2019-05-18T03:28:40.301Z,12.77
2019-05-18T03:29:40.244Z,12.79
2019-05-18T03:30:40.250Z,12.67
2019-05-18T03:31:40.234Z,12.78
2019-05-18T03:32:40.246Z,12.83
2019-05-18T03:33:40.255Z,12.82
2019-05-18T03:34:40.208Z,12.85
2019-05-18T03:35:40.216Z,12.77
2019-05-18T03:36:40.180Z,12.86
2019-05-18T03:37:40.166Z,12.85
2019-05-18T03:38:40.170Z,12.87
2019-05-18T03:39:40.141Z,12.87
2019-05-18T03:40:40.136Z,12.89
2019-05-18T03:41:40.120Z,12.79
2019-05-18T03:42:40.127Z,12.87
2019-05-18T03:43:40.115Z,12.77
2019-05-18T03:44:40.084Z,12.83
2019-05-18T03:45:40.078Z,12.79
2019-05-18T03:46:40.059Z,12.89
2019-05-18T03:47:40.056Z,12.82
2019-05-18T03:48:40.085Z,12.79
2019-05-18T03:49:40.042Z,12.86
2019-05-18T03:50:40.017Z,12.79
2019-05-18T03:51:40.002Z,12.78
2019-05-18T03:52:39.991Z,12.83
2019-05-18T03:53:39.986Z,12.87
2019-05-18T03:54:40.037Z,12.87
2019-05-18T03:55:39.960Z,12.89
2019-05-18T03:56:39.958Z,12.83
2019-05-18T03:57:39.943Z,12.95
2019-05-18T03:58:39.927Z,12.90
2019-05-18T03:59:39.943Z,12.89
2019-05-18T04:00:39.904Z,12.92
2019-05-18T04:01:39.897Z,12.89
2019-05-18T04:02:39.874Z,13.03
2019-05-18T04:03:39.874Z,12.92
2019-05-18T04:04:39.879Z,13.00
2019-05-18T04:05:39.858Z,13.04
2019-05-18T04:06:39.838Z,13.01
2019-05-18T04:07:39.828Z,13.07
2019-05-18T04:08:39.820Z,12.97
2019-05-18T04:09:39.828Z,13.05
2019-05-18T04:10:39.794Z,13.01
2019-05-18T04:11:39.787Z,13.03
2019-05-18T04:12:39.767Z,13.05
2019-05-18T04:13:39.759Z,13.04
2019-05-18T04:14:39.777Z,13.03
2019-05-18T04:15:39.736Z,13.00
2019-05-18T04:16:39.733Z,13.07
2019-05-18T04:17:39.728Z,13.03
2019-05-18T04:18:39.701Z,13.14
2019-05-18T04:19:46.363Z,13.12
2019-05-18T04:20:40.676Z,13.03
2019-05-18T04:21:39.689Z,13.00
2019-05-18T04:22:39.659Z,13.11
2019-05-18T04:23:39.660Z,13.04
2019-05-18T04:24:39.694Z,13.17
2019-05-18T04:25:43.518Z,13.12
2019-05-18T04:26:39.616Z,13.11
2019-05-18T04:27:39.603Z,13.17
2019-05-18T04:28:39.596Z,13.11
2019-05-18T04:29:39.601Z,13.11
2019-05-18T04:30:39.577Z,13.08
2019-05-18T04:31:39.558Z,13.22
2019-05-18T04:32:39.545Z,13.15
2019-05-18T04:33:39.537Z,13.10
2019-05-18T04:34:39.545Z,13.19
2019-05-18T04:35:39.519Z,13.19
2019-05-18T04:36:39.501Z,13.22
2019-05-18T04:37:39.502Z,13.22
2019-05-18T04:38:39.492Z,13.26
2019-05-18T04:39:39.493Z,13.23
2019-05-18T04:40:39.484Z,13.17
2019-05-18T04:41:39.450Z,13.20
2019-05-18T04:42:39.438Z,13.23
2019-05-18T04:43:39.421Z,13.14
2019-05-18T04:44:39.424Z,13.29
2019-05-18T04:45:39.395Z,13.23
2019-05-18T04:46:39.393Z,13.26
2019-05-18T04:47:39.383Z,13.23
2019-05-18T04:48:39.370Z,13.25
2019-05-18T04:49:39.444Z,13.26
2019-05-18T04:50:39.346Z,13.22
2019-05-18T04:51:39.335Z,13.20
2019-05-18T04:52:39.330Z,13.23
2019-05-18T04:53:39.325Z,13.26
2019-05-18T04:54:39.323Z,13.30
2019-05-18T04:55:39.287Z,13.26
2019-05-18T04:56:42.655Z,13.23
2019-05-18T04:57:39.273Z,13.19
2019-05-18T04:58:39.268Z,13.28
2019-05-18T04:59:39.273Z,13.22
2019-05-18T05:00:39.234Z,13.23
2019-05-18T05:01:39.224Z,13.23
2019-05-18T05:02:39.216Z,13.23
2019-05-18T05:03:39.196Z,13.28
2019-05-18T05:04:39.209Z,13.23
2019-05-18T05:05:39.179Z,13.23
2019-05-18T05:06:39.173Z,13.22
2019-05-18T05:07:39.160Z,13.23
2019-05-18T05:08:39.155Z,13.25
2019-05-18T05:09:39.158Z,13.29
2019-05-18T05:10:39.119Z,13.29
2019-05-18T05:11:39.130Z,13.30
2019-05-18T05:12:39.103Z,13.29
2019-05-18T05:13:39.090Z,13.28
2019-05-18T05:14:39.104Z,13.38
2019-05-18T05:15:39.074Z,13.38
2019-05-18T05:16:39.077Z,13.29
2019-05-18T05:17:39.045Z,13.30
2019-05-18T05:18:39.075Z,13.33
2019-05-18T05:19:39.059Z,13.42
2019-05-18T05:20:39.009Z,13.42
2019-05-18T05:21:39.000Z,13.39
2019-05-18T05:22:38.996Z,13.44
2019-05-18T05:23:38.991Z,13.46
2019-05-18T05:24:38.990Z,13.45
2019-05-18T05:25:38.979Z,13.46
2019-05-18T05:26:39.792Z,13.44
2019-05-18T05:27:38.942Z,13.51
2019-05-18T05:28:38.929Z,13.41
2019-05-18T05:29:38.937Z,13.44
2019-05-18T05:30:38.916Z,13.54
2019-05-18T05:31:38.893Z,13.49
2019-05-18T05:32:38.933Z,13.51
2019-05-18T05:33:38.869Z,13.51
2019-05-18T05:34:38.877Z,13.55
2019-05-18T05:35:38.857Z,13.59
2019-05-18T05:36:38.854Z,13.54
2019-05-18T05:37:38.837Z,13.63
2019-05-18T05:38:38.799Z,13.54
2019-05-18T05:39:38.833Z,13.55
2019-05-18T05:40:38.809Z,13.55
2019-05-18T05:41:38.777Z,13.66
2019-05-18T05:42:38.798Z,13.66
2019-05-18T05:43:38.770Z,13.64
2019-05-18T05:44:38.755Z,13.64
2019-05-18T05:45:38.741Z,13.62
2019-05-18T05:46:38.718Z,13.66
2019-05-18T05:47:38.713Z,13.66
2019-05-18T05:48:38.715Z,13.64
2019-05-18T05:49:38.715Z,13.70
2019-05-18T05:50:38.697Z,13.67
2019-05-18T05:51:38.665Z,13.75
2019-05-18T05:52:38.674Z,13.78
2019-05-18T05:53:38.650Z,13.71
2019-05-18T05:54:38.658Z,13.79
2019-05-18T05:55:38.622Z,13.87
2019-05-18T05:56:38.616Z,13.87
2019-05-18T05:57:38.615Z,13.88
2019-05-18T05:58:38.595Z,13.87
2019-05-18T05:59:38.613Z,13.96
2019-05-18T06:00:38.565Z,13.95
2019-05-18T06:01:38.556Z,13.95
2019-05-18T06:02:38.547Z,14.00
2019-05-18T06:03:38.533Z,13.99
2019-05-18T06:04:38.540Z,13.96
2019-05-18T06:05:38.516Z,13.96
2019-05-18T06:06:38.498Z,13.99
2019-05-18T06:07:38.497Z,14.02
2019-05-18T06:08:38.490Z,14.00
2019-05-18T06:09:38.508Z,14.09
2019-05-18T06:10:38.457Z,14.17
2019-05-18T06:11:38.461Z,14.20
2019-05-18T06:12:38.438Z,14.15
2019-05-18T06:13:38.423Z,14.17
2019-05-18T06:14:38.466Z,14.24
2019-05-18T06:15:38.405Z,14.22
2019-05-18T06:16:38.397Z,14.20
2019-05-18T06:17:38.392Z,14.25
2019-05-18T06:18:38.365Z,14.25
2019-05-18T06:19:38.389Z,14.27
2019-05-18T06:20:50.422Z,14.32
2019-05-18T06:21:39.346Z,14.32
2019-05-18T06:22:38.368Z,14.29
2019-05-18T06:23:38.904Z,14.37
2019-05-18T06:24:38.305Z,14.43
2019-05-18T06:25:38.314Z,14.43
2019-05-18T06:26:38.274Z,14.37
2019-05-18T06:27:38.272Z,14.46
2019-05-18T06:28:38.256Z,14.40
2019-05-18T06:29:38.251Z,14.43
2019-05-18T06:30:38.264Z,14.42
2019-05-18T06:31:38.215Z,14.55
2019-05-18T06:32:38.218Z,14.52
2019-05-18T06:33:38.200Z,14.42
2019-05-18T06:34:38.195Z,14.57
2019-05-18T06:35:38.201Z,14.60
2019-05-18T06:36:38.166Z,14.55
2019-05-18T06:37:38.158Z,14.61
2019-05-18T06:38:38.158Z,14.60
2019-05-18T06:39:38.335Z,14.62
2019-05-18T06:40:38.152Z,14.54
2019-05-18T06:41:38.119Z,14.52
2019-05-18T06:42:38.105Z,14.57
2019-05-18T06:43:38.082Z,14.55
2019-05-18T06:44:38.069Z,14.57
2019-05-18T06:45:38.101Z,14.64
2019-05-18T06:46:38.048Z,14.58
2019-05-18T06:47:38.059Z,14.60
2019-05-18T06:48:38.054Z,14.65
2019-05-18T06:49:38.019Z,14.69
2019-05-18T06:50:38.017Z,14.58
2019-05-18T06:51:38.016Z,14.72
2019-05-18T06:52:37.991Z,14.62
2019-05-18T06:53:37.974Z,14.72
2019-05-18T06:54:37.967Z,14.70
2019-05-18T06:55:37.977Z,14.73
2019-05-18T06:56:37.973Z,14.69
2019-05-18T06:57:37.933Z,14.70
2019-05-18T06:58:37.928Z,14.73
2019-05-18T06:59:37.924Z,14.77
2019-05-18T07:00:37.897Z,14.75
2019-05-18T07:01:37.916Z,14.73
2019-05-18T07:02:37.882Z,14.75
2019-05-18T07:03:37.869Z,14.81
2019-05-18T07:04:37.861Z,14.81
2019-05-18T07:05:37.851Z,14.89
2019-05-18T07:06:37.853Z,14.92
2019-05-18T07:07:37.829Z,14.84
2019-05-18T07:08:37.823Z,14.89
2019-05-18T07:09:37.812Z,14.92
2019-05-18T07:10:37.796Z,14.91
2019-05-18T07:11:37.857Z,14.89
2019-05-18T07:12:37.767Z,14.95
2019-05-18T07:13:37.754Z,14.91
2019-05-18T07:14:37.760Z,14.94
2019-05-18T07:15:37.774Z,15.06
2019-05-18T07:16:37.747Z,14.98
2019-05-18T07:17:37.712Z,15.11
2019-05-18T07:18:37.704Z,15.10
2019-05-18T07:19:37.705Z,15.10
2019-05-18T07:20:37.682Z,15.16
2019-05-18T07:21:37.702Z,15.16
2019-05-18T07:22:37.692Z,15.19
2019-05-18T07:23:37.646Z,15.20
2019-05-18T07:24:37.631Z,15.28
2019-05-18T07:25:37.631Z,15.25
2019-05-18T07:26:37.607Z,15.29
2019-05-18T07:27:37.614Z,15.34
2019-05-18T07:28:37.595Z,15.36
2019-05-18T07:29:37.573Z,15.32
2019-05-18T07:30:37.585Z,15.36
2019-05-18T07:31:37.555Z,15.49
2019-05-18T07:32:37.569Z,15.46
2019-05-18T07:33:37.548Z,15.49
2019-05-18T07:34:37.527Z,15.53
2019-05-18T07:35:37.529Z,15.53
2019-05-18T07:36:37.560Z,15.59
2019-05-18T07:37:37.512Z,15.59
2019-05-18T07:38:37.476Z,15.65
2019-05-18T07:39:37.460Z,15.65
2019-05-18T07:40:37.459Z,15.59
2019-05-18T07:41:46.305Z,15.65
2019-05-18T07:42:38.510Z,15.65
2019-05-18T07:43:37.414Z,15.59
2019-05-18T07:44:37.418Z,15.76
2019-05-18T07:45:37.418Z,15.82
2019-05-18T07:46:37.391Z,15.82
2019-05-18T07:47:37.410Z,15.76
2019-05-18T07:48:37.385Z,15.84
2019-05-18T07:49:37.356Z,15.83
2019-05-18T07:50:37.358Z,15.93
2019-05-18T07:51:37.538Z,15.78
2019-05-18T07:52:37.344Z,15.86
2019-05-18T07:53:37.312Z,15.89
2019-05-18T07:54:37.298Z,15.92
2019-05-18T07:55:37.290Z,16.02
2019-05-18T07:56:37.273Z,15.94
2019-05-18T07:57:37.350Z,16.05
2019-05-18T07:58:37.261Z,15.90
2019-05-18T07:59:37.257Z,15.94
2019-05-18T08:00:37.258Z,16.02
2019-05-18T08:01:37.229Z,16.00
2019-05-18T08:02:37.282Z,16.02
2019-05-18T08:03:37.199Z,15.94
2019-05-18T08:04:39.791Z,16.05
2019-05-18T08:05:37.201Z,16.05
2019-05-18T08:06:37.241Z,16.07
2019-05-18T08:07:37.192Z,16.05
2019-05-18T08:08:37.141Z,16.00
2019-05-18T08:09:37.135Z,16.05
2019-05-18T08:10:37.136Z,16.02
2019-05-18T08:11:37.120Z,16.08
2019-05-18T08:12:37.148Z,16.08
2019-05-18T08:13:37.109Z,16.15
2019-05-18T08:14:37.117Z,16.23
2019-05-18T08:15:37.068Z,16.25
2019-05-18T08:16:37.065Z,16.33
2019-05-18T08:17:37.069Z,16.28
2019-05-18T08:18:37.103Z,16.38
2019-05-18T08:19:37.021Z,16.33
2019-05-18T08:20:37.007Z,16.42
2019-05-18T08:21:51.919Z,16.46
2019-05-18T08:22:37.996Z,16.53
2019-05-18T08:23:37.006Z,16.60
2019-05-18T08:24:36.971Z,16.63
2019-05-18T08:25:36.959Z,16.56
2019-05-18T08:26:36.943Z,16.61
2019-05-18T08:27:36.941Z,16.63
2019-05-18T08:28:36.967Z,16.68
2019-05-18T08:29:36.918Z,16.67
2019-05-18T08:30:36.919Z,16.73
2019-05-18T08:31:36.890Z,16.68
2019-05-18T08:32:36.885Z,16.71
2019-05-18T08:33:36.885Z,16.79
2019-05-18T08:34:36.856Z,16.75
2019-05-18T08:35:36.862Z,16.75
2019-05-18T08:36:36.839Z,16.81
2019-05-18T08:37:36.828Z,16.78
2019-05-18T08:38:36.827Z,16.81
2019-05-18T08:39:36.822Z,16.79
2019-05-18T08:40:36.805Z,16.88
2019-05-18T08:41:36.787Z,16.85
2019-05-18T08:42:36.773Z,16.83
2019-05-18T08:43:36.784Z,16.91
2019-05-18T08:44:36.753Z,16.93
2019-05-18T08:45:36.737Z,17.01
2019-05-18T08:46:36.724Z,16.98
2019-05-18T08:47:36.722Z,16.98
2019-05-18T08:48:36.976Z,16.97
2019-05-18T08:49:36.698Z,17.04
2019-05-18T08:50:36.685Z,16.98
2019-05-18T08:51:36.685Z,17.03
2019-05-18T08:52:36.653Z,17.07
2019-05-18T08:53:36.650Z,17.12
2019-05-18T08:54:36.668Z,17.08
2019-05-18T08:55:36.631Z,17.21
2019-05-18T08:56:36.611Z,17.23
2019-05-18T08:57:36.600Z,17.25
2019-05-18T08:58:36.596Z,17.25
2019-05-18T08:59:39.788Z,17.26
2019-05-18T09:00:36.568Z,17.34
2019-05-18T09:01:36.568Z,17.28
2019-05-18T09:02:36.557Z,17.33
2019-05-18T09:03:36.540Z,17.30
2019-05-18T09:04:36.560Z,17.36
2019-05-18T09:05:36.514Z,17.48
2019-05-18T09:06:36.507Z,17.49
2019-05-18T09:07:36.486Z,17.54
2019-05-18T09:08:36.486Z,17.43
2019-05-18T09:09:36.489Z,17.55
2019-05-18T09:10:36.466Z,17.51
2019-05-18T09:11:36.445Z,17.64
2019-05-18T09:12:36.432Z,17.63
2019-05-18T09:13:36.424Z,17.68
2019-05-18T09:14:36.423Z,17.66
2019-05-18T09:15:36.394Z,17.75
2019-05-18T09:16:36.400Z,17.72
2019-05-18T09:17:36.379Z,17.77
2019-05-18T09:18:36.358Z,17.70
2019-05-18T09:19:36.384Z,17.82
2019-05-18T09:20:36.408Z,17.82
2019-05-18T09:21:36.332Z,17.87
2019-05-18T09:22:36.317Z,17.81
2019-05-18T09:23:36.311Z,17.84
2019-05-18T09:24:36.367Z,17.93
2019-05-18T09:25:36.298Z,17.89
2019-05-18T09:26:36.273Z,18.02
2019-05-18T09:27:36.281Z,17.96
2019-05-18T09:28:36.255Z,17.99
2019-05-18T09:29:36.279Z,18.05
2019-05-18T09:30:36.241Z,18.14
2019-05-18T09:31:36.244Z,18.10
2019-05-18T09:32:36.274Z,18.08
2019-05-18T09:33:36.199Z,18.18
2019-05-18T09:34:36.219Z,18.15
2019-05-18T09:35:36.185Z,18.08
2019-05-18T09:36:36.174Z,18.11
2019-05-18T09:37:36.194Z,18.15
2019-05-18T09:38:36.154Z,18.15
2019-05-18T09:39:36.161Z,18.14
2019-05-18T09:40:36.115Z,18.26
2019-05-18T09:41:36.119Z,18.35
2019-05-18T09:42:36.115Z,18.25
2019-05-18T09:43:36.192Z,18.36
2019-05-18T09:44:36.085Z,18.42
2019-05-18T09:45:36.068Z,18.47
2019-05-18T09:46:36.058Z,18.57
2019-05-18T09:47:36.051Z,18.66
2019-05-18T09:48:36.056Z,18.57
2019-05-18T09:49:36.017Z,18.63
2019-05-18T09:50:36.030Z,18.66
2019-05-18T09:51:36.119Z,18.58
2019-05-18T09:52:44.763Z,18.69
2019-05-18T09:53:50.485Z,18.55
2019-05-18T09:54:36.966Z,18.66
2019-05-18T09:55:35.993Z,18.48
2019-05-18T09:56:35.955Z,18.60
2019-05-18T09:57:35.941Z,18.57
2019-05-18T09:58:35.930Z,18.66
2019-05-18T09:59:35.923Z,18.55
2019-05-18T10:00:38.983Z,18.63
2019-05-18T10:01:35.895Z,18.60
2019-05-18T10:02:35.896Z,18.67
2019-05-18T10:03:35.861Z,18.67
2019-05-18T10:04:35.857Z,18.65
2019-05-18T10:05:35.874Z,18.67
2019-05-18T10:06:35.827Z,18.72
2019-05-18T10:07:35.816Z,18.80
2019-05-18T10:08:35.806Z,18.81
2019-05-18T10:09:39.162Z,18.87
2019-05-18T10:10:35.813Z,18.90
2019-05-18T10:11:38.355Z,18.87
2019-05-18T10:12:35.758Z,18.94
2019-05-18T10:13:35.764Z,18.94
2019-05-18T10:14:35.747Z,18.92
2019-05-18T10:15:35.780Z,18.90
2019-05-18T10:16:35.723Z,18.94
2019-05-18T10:17:35.710Z,18.92
2019-05-18T10:18:35.705Z,18.92
2019-05-18T10:19:35.715Z,18.90
2019-05-18T10:20:35.726Z,19.04
2019-05-18T10:21:35.662Z,18.92
2019-05-18T10:22:35.656Z,19.18
2019-05-18T10:23:35.664Z,19.11
2019-05-18T10:24:35.653Z,19.07
2019-05-18T10:25:35.650Z,19.21
2019-05-18T10:26:35.602Z,19.19
2019-05-18T10:27:35.594Z,19.18
2019-05-18T10:28:35.592Z,19.18
2019-05-18T10:29:35.578Z,19.22
2019-05-18T10:30:35.593Z,19.33
2019-05-18T10:31:35.553Z,19.31
2019-05-18T10:32:35.542Z,19.32
2019-05-18T10:33:35.529Z,19.36
2019-05-18T10:34:35.517Z,19.32
2019-05-18T10:35:35.578Z,19.32
2019-05-18T10:36:35.619Z,19.29
2019-05-18T10:37:35.496Z,19.26
2019-05-18T10:38:35.478Z,19.29
2019-05-18T10:39:38.625Z,19.32
2019-05-18T10:40:35.484Z,19.21
2019-05-18T10:41:35.444Z,19.25
2019-05-18T10:42:35.436Z,19.26
2019-05-18T10:43:35.432Z,19.21
2019-05-18T10:44:35.408Z,19.21
2019-05-18T10:45:35.435Z,19.23
2019-05-18T10:46:35.391Z,19.23
2019-05-18T10:47:35.380Z,19.22
2019-05-18T10:48:35.387Z,19.18
2019-05-18T10:49:35.352Z,19.23
2019-05-18T10:50:35.342Z,19.26
2019-05-18T10:51:35.350Z,19.25
2019-05-18T10:52:35.327Z,19.22
2019-05-18T10:53:35.308Z,19.33
2019-05-18T10:54:35.391Z,19.43
2019-05-18T10:55:35.318Z,19.43
2019-05-18T10:56:35.298Z,19.43
2019-05-18T10:57:35.306Z,19.43
2019-05-18T10:58:35.259Z,19.51
2019-05-18T10:59:35.249Z,19.46
2019-05-18T11:00:35.237Z,19.43
2019-05-18T11:01:35.240Z,19.51
2019-05-18T11:02:35.218Z,19.50
2019-05-18T11:03:35.204Z,19.56
2019-05-18T11:04:35.207Z,19.58
2019-05-18T11:05:35.166Z,19.58
2019-05-18T11:06:35.174Z,19.59
2019-05-18T11:07:35.179Z,19.62
2019-05-18T11:08:38.250Z,19.46
2019-05-18T11:09:35.143Z,19.54
2019-05-18T11:10:35.115Z,19.46
2019-05-18T11:11:35.133Z,19.46
2019-05-18T11:12:35.120Z,19.54
2019-05-18T11:13:35.105Z,19.58
2019-05-18T11:14:35.083Z,19.58
2019-05-18T11:15:35.067Z,19.69
2019-05-18T11:16:35.100Z,19.65
2019-05-18T11:17:35.037Z,19.76
2019-05-18T11:18:35.031Z,19.74
2019-05-18T11:19:35.021Z,19.83
2019-05-18T11:20:35.066Z,19.81
2019-05-18T11:21:35.022Z,19.86
2019-05-18T11:22:35.001Z,19.80
2019-05-18T11:23:43.127Z,19.87
2019-05-18T11:24:35.973Z,19.88
2019-05-18T11:25:34.955Z,19.78
2019-05-18T11:26:34.982Z,19.69
2019-05-18T11:27:34.937Z,19.74
2019-05-18T11:28:34.929Z,19.80
2019-05-18T11:29:34.951Z,19.80
2019-05-18T11:30:34.902Z,19.84
2019-05-18T11:31:34.922Z,19.98
2019-05-18T11:32:34.878Z,19.95
2019-05-18T11:33:34.874Z,19.92
2019-05-18T11:34:34.866Z,19.94
2019-05-18T11:35:34.855Z,20.08
2019-05-18T11:36:34.892Z,20.06
2019-05-18T11:37:34.817Z,20.24
2019-05-18T11:38:34.813Z,20.23
2019-05-18T11:39:34.803Z,20.28
2019-05-18T11:40:34.780Z,20.29
2019-05-18T11:41:34.800Z,20.29
2019-05-18T11:42:34.770Z,20.31
2019-05-18T11:43:34.782Z,20.41
2019-05-18T11:44:34.752Z,20.47
2019-05-18T11:45:34.746Z,20.35
2019-05-18T11:46:34.720Z,20.42
2019-05-18T11:47:34.718Z,20.38
2019-05-18T11:48:34.707Z,20.32
2019-05-18T11:49:34.691Z,20.33
2019-05-18T11:50:34.695Z,20.32
2019-05-18T11:51:34.684Z,20.32
2019-05-18T11:52:34.696Z,20.38
2019-05-18T11:53:34.643Z,20.31
2019-05-18T11:54:34.632Z,20.28
2019-05-18T11:55:34.625Z,20.32
2019-05-18T11:56:34.623Z,20.41
2019-05-18T11:57:34.634Z,20.35
2019-05-18T11:58:34.633Z,20.39
2019-05-18T11:59:34.581Z,20.54
2019-05-18T12:00:34.590Z,20.55
2019-05-18T12:01:34.555Z,20.50
2019-05-18T12:02:34.563Z,20.59
2019-05-18T12:03:34.537Z,20.55
2019-05-18T12:04:34.518Z,20.54
2019-05-18T12:05:34.518Z,20.59
2019-05-18T12:06:34.506Z,20.74
2019-05-18T12:07:34.518Z,20.74
2019-05-18T12:08:34.507Z,20.92
2019-05-18T12:09:34.490Z,20.89
2019-05-18T12:10:34.467Z,20.85
2019-05-18T12:11:34.445Z,20.89
2019-05-18T12:12:34.452Z,20.98
2019-05-18T12:13:34.446Z,20.95
2019-05-18T12:14:34.411Z,20.99
2019-05-18T12:15:34.409Z,20.95
2019-05-18T12:16:34.402Z,20.87
2019-05-18T12:17:34.382Z,20.82
2019-05-18T12:18:34.405Z,20.89
2019-05-18T12:19:34.362Z,20.74
2019-05-18T12:20:34.342Z,20.74
2019-05-18T12:21:34.338Z,20.80
2019-05-18T12:22:34.328Z,20.77
2019-05-18T12:23:34.355Z,20.76
2019-05-18T12:24:34.407Z,20.88
2019-05-18T12:25:34.285Z,20.89
2019-05-18T12:26:34.308Z,20.94
2019-05-18T12:27:34.258Z,20.98
2019-05-18T12:28:34.283Z,20.99
2019-05-18T12:29:34.246Z,21.12
2019-05-18T12:30:34.255Z,21.19
2019-05-18T12:31:34.235Z,21.13
2019-05-18T12:32:34.219Z,21.24
2019-05-18T12:33:34.231Z,21.29
2019-05-18T12:34:34.189Z,21.31
2019-05-18T12:35:34.193Z,21.32
2019-05-18T12:36:34.236Z,21.38
2019-05-18T12:37:34.178Z,21.40
2019-05-18T12:38:34.182Z,21.50
2019-05-18T12:39:34.170Z,21.56
2019-05-18T12:40:34.133Z,21.58
2019-05-18T12:41:34.111Z,21.64
2019-05-18T12:42:34.109Z,21.62
2019-05-18T12:43:34.122Z,21.71
2019-05-18T12:44:34.103Z,21.71
2019-05-18T12:45:34.073Z,21.86
2019-05-18T12:46:34.103Z,21.77
2019-05-18T12:47:34.048Z,21.79
2019-05-18T12:48:34.103Z,21.80
2019-05-18T12:49:34.093Z,21.88
2019-05-18T12:50:34.049Z,21.72
2019-05-18T12:51:34.018Z,21.71
2019-05-18T12:52:33.999Z,21.71